createdAt,value
2022-11-16T00:00:06.589Z,560.4
2022-11-16T00:01:08.320Z,560.5
2022-11-16T00:02:10.511Z,560.3
2022-11-16T00:03:12.187Z,560.3
2022-11-16T00:04:13.895Z,560.6
2022-11-16T00:05:15.738Z,560.5
2022-11-16T00:06:17.358Z,560.9
2022-11-16T00:07:19.269Z,560.8
2022-11-16T00:08:21.126Z,560.4
2022-11-16T00:09:22.838Z,560.5
2022-11-16T00:10:24.462Z,560.8
2022-11-16T00:11:26.252Z,560.8
2022-11-16T00:12:28.156Z,560.6
2022-11-16T00:13:29.821Z,560.6
2022-11-16T00:14:31.570Z,560.7
2022-11-16T00:15:33.325Z,560.4
2022-11-16T00:16:35.044Z,560.2
2022-11-16T00:17:36.654Z,560.4
2022-11-16T00:18:38.458Z,560.1
2022-11-16T00:19:40.211Z,560.3
2022-11-16T00:20:41.946Z,560.3
2022-11-16T00:21:43.624Z,560.2
2022-11-16T00:22:45.428Z,560.5
2022-11-16T00:23:47.201Z,560.5
2022-11-16T00:24:48.769Z,560.6
2022-11-16T00:25:50.307Z,560.9
2022-11-16T00:26:52.026Z,561
2022-11-16T00:27:53.574Z,561.5
2022-11-16T00:28:55.214Z,561.6
2022-11-16T00:29:57.024Z,561.4
2022-11-16T00:30:58.795Z,561.7
2022-11-16T00:32:00.650Z,561.6
2022-11-16T00:33:02.331Z,562.1
2022-11-16T00:34:04.043Z,561.8
2022-11-16T00:35:05.779Z,562.1
2022-11-16T00:36:07.635Z,562.2
2022-11-16T00:37:09.377Z,561.9
2022-11-16T00:38:11.072Z,561.8
2022-11-16T00:39:12.774Z,561.5
2022-11-16T00:40:14.527Z,562.5
2022-11-16T00:41:16.175Z,561.8
2022-11-16T00:42:17.920Z,561.6
2022-11-16T00:43:19.580Z,561.7
2022-11-16T00:44:21.180Z,561.8
2022-11-16T00:45:22.953Z,562
2022-11-16T00:46:24.542Z,562.6
2022-11-16T00:47:26.187Z,562.7
2022-11-16T00:48:27.895Z,562.4
2022-11-16T00:49:29.639Z,562.6
2022-11-16T00:50:31.516Z,563.2
2022-11-16T00:51:33.251Z,563.6
2022-11-16T00:52:34.957Z,563.9
2022-11-16T00:53:36.498Z,563.8
2022-11-16T00:54:38.299Z,564.1
2022-11-16T00:55:40.043Z,563.5
2022-11-16T00:56:41.786Z,563.3
2022-11-16T00:57:43.516Z,563.9
2022-11-16T00:58:45.369Z,564.3
2022-11-16T00:59:47.219Z,564.1
2022-11-16T01:00:48.896Z,563.8
2022-11-16T01:01:50.840Z,563.9
2022-11-16T01:02:52.561Z,564.2
2022-11-16T01:03:54.257Z,564.8
2022-11-16T01:04:55.845Z,564.7
2022-11-16T01:05:57.627Z,564.9
2022-11-16T01:06:59.671Z,565.2
2022-11-16T01:08:01.311Z,565
2022-11-16T01:09:03.252Z,565.1
2022-11-16T01:10:05.105Z,565.1
2022-11-16T01:11:06.800Z,565
2022-11-16T01:12:08.433Z,565.7
2022-11-16T01:13:10.218Z,566
2022-11-16T01:14:12.102Z,565.8
2022-11-16T01:15:13.829Z,565.9
2022-11-16T01:16:15.421Z,565.9
2022-11-16T01:17:17.134Z,566.2
2022-11-16T01:18:18.691Z,565.9
2022-11-16T01:19:20.359Z,566.2
2022-11-16T01:20:22.176Z,566.7
2022-11-16T01:21:23.942Z,566.8
2022-11-16T01:22:25.611Z,566.6
2022-11-16T01:23:27.199Z,566.7
2022-11-16T01:24:29.061Z,566.6
2022-11-16T01:25:30.825Z,566.8
2022-11-16T01:26:32.368Z,567.5
2022-11-16T01:27:34.094Z,567.3
2022-11-16T01:28:37.427Z,567.2
2022-11-16T01:29:39.167Z,566.9
2022-11-16T01:30:40.787Z,566.9
2022-11-16T01:31:42.521Z,566.3
2022-11-16T01:32:44.068Z,566.6
2022-11-16T01:33:45.645Z,566.4
2022-11-16T01:34:47.372Z,566.6
2022-11-16T01:35:49.013Z,566.9
2022-11-16T01:36:50.745Z,566.9
2022-11-16T01:37:52.435Z,566.6
2022-11-16T01:38:54.240Z,567
2022-11-16T01:39:55.989Z,566.9
2022-11-16T01:40:57.643Z,566.8
2022-11-16T01:41:59.391Z,567.2
2022-11-16T01:43:01.146Z,567
2022-11-16T01:44:02.894Z,566.9
2022-11-16T01:45:04.665Z,567.2
2022-11-16T01:46:06.375Z,567.3
2022-11-16T01:47:08.240Z,567.4
2022-11-16T01:48:10.338Z,567.3
2022-11-16T01:49:12.026Z,567.3
2022-11-16T01:50:13.810Z,567.1
2022-11-16T01:51:15.490Z,566.9
2022-11-16T01:52:17.395Z,566.9
2022-11-16T01:53:19.132Z,567.3
2022-11-16T01:54:20.867Z,567.2
2022-11-16T01:55:22.719Z,567.5
2022-11-16T01:56:24.347Z,567.3
2022-11-16T01:57:25.983Z,567.1
2022-11-16T01:58:27.594Z,567.3
2022-11-16T01:59:29.419Z,567.8
2022-11-16T02:00:30.961Z,567.4
2022-11-16T02:01:33.015Z,567.6
2022-11-16T02:02:34.665Z,567.6
2022-11-16T02:03:36.286Z,567.7
2022-11-16T02:04:38.137Z,567.8
2022-11-16T02:05:39.775Z,567.2
2022-11-16T02:06:41.530Z,567.8
2022-11-16T02:07:43.508Z,567.9
2022-11-16T02:08:45.330Z,568.1
2022-11-16T02:09:47.017Z,568.1
2022-11-16T02:10:48.639Z,567.9
2022-11-16T02:11:50.372Z,567.8
2022-11-16T02:12:52.123Z,568.1
2022-11-16T02:13:53.883Z,568.3
2022-11-16T02:14:55.628Z,568.3
2022-11-16T02:15:57.194Z,568.5
2022-11-16T02:16:58.821Z,568.7
2022-11-16T02:18:00.486Z,568.9
2022-11-16T02:19:02.100Z,569.1
2022-11-16T02:20:03.756Z,569
2022-11-16T02:21:05.298Z,569.1
2022-11-16T02:22:06.938Z,569.4
2022-11-16T02:23:08.641Z,570.2
2022-11-16T02:24:10.259Z,570
2022-11-16T02:25:11.859Z,569.7
2022-11-16T02:26:13.446Z,569.8
2022-11-16T02:27:15.096Z,569.6
2022-11-16T02:28:16.641Z,569.4
2022-11-16T02:29:18.274Z,569.4
2022-11-16T02:30:19.899Z,569.2
2022-11-16T02:31:21.633Z,570
2022-11-16T02:32:23.375Z,570.1
2022-11-16T02:33:24.967Z,569.9
2022-11-16T02:34:26.662Z,569.5
2022-11-16T02:35:28.250Z,569.7
2022-11-16T02:36:29.815Z,570.2
2022-11-16T02:37:31.618Z,569.7
2022-11-16T02:38:35.015Z,569.8
2022-11-16T02:39:37.066Z,569.9
2022-11-16T02:40:38.682Z,570.1
2022-11-16T02:41:40.224Z,570.3
2022-11-16T02:42:41.979Z,570.4
2022-11-16T02:43:43.750Z,570.5
2022-11-16T02:44:45.473Z,570.7
2022-11-16T02:45:47.062Z,570.5
2022-11-16T02:46:48.677Z,571
2022-11-16T02:47:50.236Z,570.6
2022-11-16T02:48:51.970Z,570.5
2022-11-16T02:49:53.603Z,570.9
2022-11-16T02:50:55.260Z,571
2022-11-16T02:51:56.841Z,570.6
2022-11-16T02:52:58.445Z,570.2
2022-11-16T02:54:00.415Z,570.9
2022-11-16T02:55:02.152Z,570.8
2022-11-16T02:56:03.896Z,571.1
2022-11-16T02:57:05.495Z,570.7
2022-11-16T02:58:10.056Z,570.4
2022-11-16T02:59:18.152Z,570.9
2022-11-16T03:00:19.738Z,571.2
2022-11-16T03:01:21.782Z,571
2022-11-16T03:02:23.588Z,570.9
2022-11-16T03:03:25.326Z,571.1
2022-11-16T03:04:26.890Z,571.1
2022-11-16T03:05:28.619Z,571.1
2022-11-16T03:06:30.180Z,571
2022-11-16T03:07:32.148Z,571.5
2022-11-16T03:08:35.218Z,571.1
2022-11-16T03:09:37.270Z,571.4
2022-11-16T03:10:39.017Z,571.6
2022-11-16T03:11:40.761Z,572.3
2022-11-16T03:12:42.462Z,572.2
2022-11-16T03:13:43.944Z,572.3
2022-11-16T03:14:45.682Z,571.8
2022-11-16T03:15:47.370Z,572.2
2022-11-16T03:16:49.006Z,572.4
2022-11-16T03:17:50.719Z,572.3
2022-11-16T03:18:52.401Z,572.1
2022-11-16T03:19:54.110Z,572.4
2022-11-16T03:20:55.656Z,573
2022-11-16T03:21:57.401Z,573.1
2022-11-16T03:22:58.965Z,572.7
2022-11-16T03:24:00.712Z,572.6
2022-11-16T03:25:02.561Z,572.5
2022-11-16T03:26:04.308Z,572.4
2022-11-16T03:27:05.900Z,572.6
2022-11-16T03:28:07.524Z,572.8
2022-11-16T03:29:09.130Z,573
2022-11-16T03:30:10.746Z,572.7
2022-11-16T03:31:12.414Z,572.6
2022-11-16T03:32:14.180Z,573.2
2022-11-16T03:33:15.782Z,573.5
2022-11-16T03:34:17.553Z,573.1
2022-11-16T03:35:19.134Z,573.1
2022-11-16T03:36:20.711Z,573.4
2022-11-16T03:37:22.325Z,573.1
2022-11-16T03:38:23.861Z,573.5
2022-11-16T03:39:25.566Z,573.2
2022-11-16T03:40:27.450Z,573.4
2022-11-16T03:41:29.173Z,573.1
2022-11-16T03:42:30.719Z,573
2022-11-16T03:43:32.460Z,573
2022-11-16T03:44:34.149Z,572.8
2022-11-16T03:45:35.785Z,572.7
2022-11-16T03:46:37.386Z,572.2
2022-11-16T03:47:39.171Z,572.6
2022-11-16T03:48:40.910Z,572.3
2022-11-16T03:49:42.452Z,572.8
2022-11-16T03:50:44.086Z,572.8
2022-11-16T03:51:45.666Z,572.7
2022-11-16T03:52:47.300Z,572.8
2022-11-16T03:53:49.021Z,573.2
2022-11-16T03:54:50.651Z,573.4
2022-11-16T03:55:52.434Z,573.3
2022-11-16T03:56:54.086Z,573
2022-11-16T03:57:55.830Z,573.2
2022-11-16T03:58:57.415Z,572.8
2022-11-16T03:59:59.111Z,572.5
2022-11-16T04:01:01.428Z,573.4
2022-11-16T04:02:03.224Z,573.5
2022-11-16T04:03:04.978Z,573.1
2022-11-16T04:04:06.699Z,573.2
2022-11-16T04:05:08.341Z,573.3
2022-11-16T04:06:10.092Z,574
2022-11-16T04:07:12.153Z,574.5
2022-11-16T04:08:13.896Z,574.4
2022-11-16T04:09:15.550Z,573.7
2022-11-16T04:10:17.185Z,574.7
2022-11-16T04:11:18.964Z,574.6
2022-11-16T04:12:20.618Z,574.8
2022-11-16T04:13:22.229Z,574.9
2022-11-16T04:14:23.742Z,575.1
2022-11-16T04:15:25.400Z,575
2022-11-16T04:16:30.125Z,575.4
2022-11-16T04:17:31.842Z,575.8
2022-11-16T04:18:35.065Z,575.9
2022-11-16T04:19:36.931Z,576
2022-11-16T04:20:38.552Z,576.8
2022-11-16T04:21:40.142Z,576.7
2022-11-16T04:22:41.946Z,576.3
2022-11-16T04:23:43.621Z,576
2022-11-16T04:24:45.199Z,576.6
2022-11-16T04:25:46.909Z,575.9
2022-11-16T04:26:48.756Z,575.8
2022-11-16T04:27:50.616Z,575.5
2022-11-16T04:28:52.331Z,575.6
2022-11-16T04:29:53.906Z,575.5
2022-11-16T04:30:55.568Z,575.6
2022-11-16T04:31:57.264Z,574.9
2022-11-16T04:32:58.937Z,575.2
2022-11-16T04:34:00.681Z,575.7
2022-11-16T04:35:02.416Z,575.9
2022-11-16T04:36:04.039Z,575.5
2022-11-16T04:37:05.639Z,576.1
2022-11-16T04:38:07.444Z,576.1
2022-11-16T04:39:09.105Z,575.9
2022-11-16T04:40:10.839Z,576.3
2022-11-16T04:41:12.586Z,576.2
2022-11-16T04:42:14.365Z,576.3
2022-11-16T04:43:16.284Z,576.4
2022-11-16T04:44:18.032Z,576.5
2022-11-16T04:45:19.677Z,576.4
2022-11-16T04:46:21.231Z,576.7
2022-11-16T04:47:22.972Z,577
2022-11-16T04:48:24.578Z,577
2022-11-16T04:49:26.159Z,576.8
2022-11-16T04:50:27.801Z,576.9
2022-11-16T04:51:29.582Z,576.7
2022-11-16T04:52:31.408Z,576.7
2022-11-16T04:53:33.105Z,576.2
2022-11-16T04:54:34.896Z,576.5
2022-11-16T04:55:36.618Z,576.4
2022-11-16T04:56:38.332Z,576.4
2022-11-16T04:57:40.066Z,576.7
2022-11-16T04:58:41.858Z,576.4
2022-11-16T04:59:43.790Z,576.5
2022-11-16T05:00:45.413Z,576.5
2022-11-16T05:01:47.484Z,576.4
2022-11-16T05:02:49.130Z,576.9
2022-11-16T05:03:50.753Z,577
2022-11-16T05:04:52.301Z,576.8
2022-11-16T05:05:54.047Z,577
2022-11-16T05:06:56.119Z,576.6
2022-11-16T05:07:57.803Z,577.2
2022-11-16T05:08:59.494Z,577.2
2022-11-16T05:10:01.259Z,577.5
2022-11-16T05:11:03.070Z,577.2
2022-11-16T05:12:04.736Z,577.1
2022-11-16T05:13:06.730Z,577
2022-11-16T05:14:08.417Z,577.2
2022-11-16T05:15:10.058Z,577.3
2022-11-16T05:16:11.910Z,577.4
2022-11-16T05:17:13.580Z,577.4
2022-11-16T05:18:15.244Z,577.2
2022-11-16T05:19:16.948Z,577.1
2022-11-16T05:20:18.693Z,577.3
2022-11-16T05:21:20.378Z,577.2
2022-11-16T05:22:22.087Z,577.2
2022-11-16T05:23:23.630Z,577.2
2022-11-16T05:24:25.255Z,577.4
2022-11-16T05:25:26.858Z,577.5
2022-11-16T05:26:28.686Z,577.3
2022-11-16T05:27:30.309Z,577.1
2022-11-16T05:28:33.423Z,577.4
2022-11-16T05:29:35.467Z,577.6
2022-11-16T05:30:37.024Z,577.6
2022-11-16T05:31:41.118Z,577.4
2022-11-16T05:32:42.941Z,577.4
2022-11-16T05:33:44.696Z,577.4
2022-11-16T05:34:46.325Z,577.8
2022-11-16T05:35:47.982Z,577.4
2022-11-16T05:36:49.769Z,577.5
2022-11-16T05:37:51.500Z,577.6
2022-11-16T05:38:56.981Z,577.4
2022-11-16T05:39:58.671Z,577.4
2022-11-16T05:41:00.401Z,577.7
2022-11-16T05:42:02.144Z,577.7
2022-11-16T05:43:03.999Z,577.5
2022-11-16T05:44:05.777Z,577.1
2022-11-16T05:45:07.497Z,577.7
2022-11-16T05:46:09.186Z,577.6
2022-11-16T05:47:10.802Z,577.2
2022-11-16T05:48:12.430Z,577.2
2022-11-16T05:49:13.978Z,577.1
2022-11-16T05:50:15.721Z,577.4
2022-11-16T05:51:17.409Z,577.7
2022-11-16T05:52:19.057Z,577.5
2022-11-16T05:53:20.778Z,577.2
2022-11-16T05:54:22.516Z,576.9
2022-11-16T05:55:24.209Z,576.9
2022-11-16T05:56:26.235Z,577
2022-11-16T05:57:27.873Z,576.9
2022-11-16T05:58:29.619Z,577
2022-11-16T05:59:31.426Z,577
2022-11-16T06:00:33.161Z,577.2
2022-11-16T06:01:34.741Z,576.8
2022-11-16T06:02:36.748Z,576.5
2022-11-16T06:03:38.647Z,576.2
2022-11-16T06:04:40.593Z,576.3
2022-11-16T06:05:42.277Z,576.7
2022-11-16T06:06:44.012Z,576.5
2022-11-16T06:07:45.584Z,576.7
2022-11-16T06:08:47.387Z,576.8
2022-11-16T06:09:49.074Z,576.8
2022-11-16T06:10:50.619Z,577.4
2022-11-16T06:11:52.637Z,577.3
2022-11-16T06:12:54.209Z,577.3
2022-11-16T06:13:55.919Z,577.2
2022-11-16T06:14:57.492Z,576.3
2022-11-16T06:16:00.927Z,576.6
2022-11-16T06:17:02.530Z,576.6
2022-11-16T06:18:04.265Z,576.6
2022-11-16T06:19:06.002Z,576.6
2022-11-16T06:20:07.781Z,576.5
2022-11-16T06:21:09.626Z,576.6
2022-11-16T06:22:11.331Z,577
2022-11-16T06:23:13.067Z,577.1
2022-11-16T06:24:14.726Z,576.7
2022-11-16T06:25:16.437Z,576.8
2022-11-16T06:26:18.128Z,577
2022-11-16T06:27:19.806Z,577.1
2022-11-16T06:28:21.803Z,576.9
2022-11-16T06:29:23.651Z,577
2022-11-16T06:30:25.350Z,576.8
2022-11-16T06:31:27.799Z,577
2022-11-16T06:32:29.579Z,576.9
2022-11-16T06:33:34.452Z,577
2022-11-16T06:34:36.231Z,577
2022-11-16T06:35:38.046Z,576.7
2022-11-16T06:36:39.734Z,576.8
2022-11-16T06:37:41.469Z,577.1
2022-11-16T06:38:43.125Z,577.1
2022-11-16T06:39:44.836Z,576.9
2022-11-16T06:40:46.582Z,576.1
2022-11-16T06:41:49.821Z,576.3
2022-11-16T06:42:51.823Z,576.5
2022-11-16T06:43:53.464Z,576.3
2022-11-16T06:44:55.017Z,576.6
2022-11-16T06:45:56.688Z,577.1
2022-11-16T06:46:59.855Z,577.4
2022-11-16T06:48:01.477Z,576.8
2022-11-16T06:49:03.125Z,576.8
2022-11-16T06:50:04.924Z,577
2022-11-16T06:51:06.869Z,577.7
2022-11-16T06:52:08.513Z,577.2
2022-11-16T06:53:10.060Z,577.4
2022-11-16T06:54:11.693Z,577.8
2022-11-16T06:55:13.401Z,577.7
2022-11-16T06:56:15.098Z,578
2022-11-16T06:57:16.891Z,577.7
2022-11-16T06:58:18.747Z,577.5
2022-11-16T06:59:20.502Z,577.4
2022-11-16T07:00:22.290Z,577.1
2022-11-16T07:01:24.359Z,577.2
2022-11-16T07:02:27.053Z,577.7
2022-11-16T07:03:28.713Z,577.5
2022-11-16T07:04:30.415Z,577.2
2022-11-16T07:05:31.967Z,577.5
2022-11-16T07:06:33.516Z,577.5
2022-11-16T07:07:35.534Z,577.6
2022-11-16T07:08:37.575Z,577.7
2022-11-16T07:09:39.308Z,577.9
2022-11-16T07:10:41.052Z,578.1
2022-11-16T07:11:42.814Z,577.9
2022-11-16T07:12:44.553Z,578.2
2022-11-16T07:13:46.175Z,578.3
2022-11-16T07:14:47.938Z,578.2
2022-11-16T07:15:49.706Z,578.3
2022-11-16T07:17:09.240Z,577.9
2022-11-16T07:18:11.653Z,577.8
2022-11-16T07:19:13.368Z,578.1
2022-11-16T07:20:14.981Z,577.9
2022-11-16T07:21:16.858Z,577.7
2022-11-16T07:22:18.419Z,578
2022-11-16T07:23:20.146Z,578.5
2022-11-16T07:24:21.834Z,578.4
2022-11-16T07:25:23.482Z,578.4
2022-11-16T07:26:25.131Z,578.2
2022-11-16T07:27:26.937Z,578.1
2022-11-16T07:28:32.709Z,578.4
2022-11-16T07:29:34.669Z,578.7
2022-11-16T07:30:36.478Z,578.8
2022-11-16T07:31:38.744Z,578.4
2022-11-16T07:32:40.614Z,578.7
2022-11-16T07:33:42.972Z,578.9
2022-11-16T07:34:44.553Z,579
2022-11-16T07:35:46.101Z,578.6
2022-11-16T07:36:48.007Z,578.5
2022-11-16T07:37:49.676Z,578.5
2022-11-16T07:38:51.226Z,579
2022-11-16T07:39:52.868Z,579.5
2022-11-16T07:40:54.492Z,579.6
2022-11-16T07:41:56.233Z,579.9
2022-11-16T07:42:57.901Z,580.1
2022-11-16T07:43:59.604Z,580
2022-11-16T07:45:01.357Z,579.7
2022-11-16T07:46:49.491Z,579.2
2022-11-16T07:47:51.171Z,579.5
2022-11-16T07:48:53.418Z,579.8
2022-11-16T07:49:55.039Z,579.7
2022-11-16T07:50:56.787Z,579.9
2022-11-16T07:51:58.480Z,579.8
2022-11-16T07:53:00.218Z,579.8
2022-11-16T07:54:01.932Z,579.8
2022-11-16T07:55:03.595Z,579.7
2022-11-16T07:56:05.206Z,579.8
2022-11-16T07:57:06.970Z,580.5
2022-11-16T07:58:08.655Z,580.4
2022-11-16T07:59:10.293Z,580.1
2022-11-16T08:00:11.903Z,579.8
2022-11-16T08:01:13.652Z,580.3
2022-11-16T08:02:15.540Z,580.1
2022-11-16T08:03:25.256Z,580.1
2022-11-16T08:04:27.124Z,580.1
2022-11-16T08:05:29.214Z,580.3
2022-11-16T08:06:30.797Z,580.2
2022-11-16T08:07:32.947Z,580.3
2022-11-16T08:08:36.420Z,580.3
2022-11-16T08:09:38.830Z,580.6
2022-11-16T08:10:40.646Z,580.3
2022-11-16T08:11:42.334Z,580.5
2022-11-16T08:12:44.039Z,580.9
2022-11-16T08:13:45.818Z,580.6
2022-11-16T08:14:48.401Z,580.7
2022-11-16T08:15:50.103Z,581.2
2022-11-16T08:16:51.822Z,581.2
2022-11-16T08:17:53.602Z,581.5
2022-11-16T08:18:55.381Z,581.4
2022-11-16T08:19:57.408Z,581.4
2022-11-16T08:20:59.294Z,581.9
2022-11-16T08:22:01.001Z,582
2022-11-16T08:23:02.757Z,581.7
2022-11-16T08:24:04.520Z,581.4
2022-11-16T08:25:06.143Z,581.4
2022-11-16T08:26:07.852Z,581.7
2022-11-16T08:27:09.530Z,581.9
2022-11-16T08:28:11.118Z,582
2022-11-16T08:29:12.918Z,582.4
2022-11-16T08:30:14.513Z,582.4
2022-11-16T08:31:16.221Z,582.5
2022-11-16T08:32:17.960Z,582.6
2022-11-16T08:33:19.565Z,582.7
2022-11-16T08:34:21.127Z,583.1
2022-11-16T08:35:23.213Z,582.8
2022-11-16T08:36:24.950Z,582.5
2022-11-16T08:37:26.701Z,582.8
2022-11-16T08:38:28.549Z,582.8
2022-11-16T08:39:30.171Z,583
2022-11-16T08:40:31.775Z,582.8
2022-11-16T08:41:33.592Z,583.2
2022-11-16T08:42:44.445Z,583.3
2022-11-16T08:43:46.190Z,583.8
2022-11-16T08:44:47.769Z,583.7
2022-11-16T08:45:49.309Z,584
2022-11-16T08:46:51.150Z,583.6
2022-11-16T08:48:04.861Z,583.8
2022-11-16T08:49:06.532Z,583.8
2022-11-16T08:50:08.152Z,583.8
2022-11-16T08:51:21.479Z,584
2022-11-16T08:52:23.155Z,583.9
2022-11-16T08:53:24.865Z,584.2
2022-11-16T08:54:26.434Z,584
2022-11-16T08:55:28.150Z,583.9
2022-11-16T08:56:29.912Z,584.1
2022-11-16T08:57:31.698Z,584
2022-11-16T08:58:35.111Z,583.9
2022-11-16T08:59:36.908Z,583.9
2022-11-16T09:00:38.581Z,583.9
2022-11-16T09:01:40.357Z,583.8
2022-11-16T09:02:42.147Z,583.8
2022-11-16T09:03:43.878Z,583.9
2022-11-16T09:04:45.577Z,583.4
2022-11-16T09:05:47.288Z,583.6
2022-11-16T09:06:49.672Z,584
2022-11-16T09:07:51.406Z,584.4
2022-11-16T09:08:53.148Z,584.2
2022-11-16T09:09:54.788Z,584.1
2022-11-16T09:10:56.421Z,584
2022-11-16T09:11:58.163Z,584.1
2022-11-16T09:13:00.036Z,584
2022-11-16T09:14:01.607Z,583.7
2022-11-16T09:15:03.261Z,583.6
2022-11-16T09:16:04.844Z,583.9
2022-11-16T09:17:06.395Z,584.6
2022-11-16T09:18:08.261Z,584.9
2022-11-16T09:19:10.023Z,584.9
2022-11-16T09:20:11.756Z,584.9
2022-11-16T09:21:13.512Z,585.1
2022-11-16T09:22:15.561Z,585.3
2022-11-16T09:23:26.303Z,585.3
2022-11-16T09:24:28.047Z,585.7
2022-11-16T09:25:29.793Z,585.9
2022-11-16T09:26:31.948Z,586.5
2022-11-16T09:27:33.617Z,586.8
2022-11-16T09:28:37.121Z,587.1
2022-11-16T09:29:39.039Z,587.2
2022-11-16T09:30:40.913Z,587.4
2022-11-16T09:31:42.709Z,587.2
2022-11-16T09:32:44.698Z,587.6
2022-11-16T09:33:46.443Z,587.7
2022-11-16T09:34:48.120Z,588.7
2022-11-16T09:35:49.849Z,588.6
2022-11-16T09:36:51.579Z,588.6
2022-11-16T09:37:53.651Z,589.1
2022-11-16T09:39:32.711Z,589
2022-11-16T09:40:34.402Z,589.7
2022-11-16T09:41:36.055Z,590.1
2022-11-16T09:42:37.632Z,590.3
2022-11-16T09:43:47.788Z,589.8
2022-11-16T09:44:49.512Z,590.6
2022-11-16T09:45:51.126Z,591.3
2022-11-16T09:46:52.771Z,591.2
2022-11-16T09:47:54.424Z,590.7
2022-11-16T09:48:56.185Z,591.1
2022-11-16T09:50:04.673Z,591.4
2022-11-16T09:51:06.459Z,591.5
2022-11-16T09:52:08.169Z,591.3
2022-11-16T09:53:10.334Z,591.5
2022-11-16T09:54:12.041Z,591.7
2022-11-16T09:55:16.685Z,591.4
2022-11-16T09:56:23.246Z,591.5
2022-11-16T09:57:25.037Z,592
2022-11-16T09:58:26.643Z,592.1
2022-11-16T09:59:28.491Z,592
2022-11-16T10:00:30.676Z,591.8
2022-11-16T10:01:32.500Z,591.7
2022-11-16T10:02:34.275Z,592.2
2022-11-16T10:03:37.158Z,592.7
2022-11-16T10:04:39.037Z,593
2022-11-16T10:05:40.825Z,593.8
2022-11-16T10:06:42.684Z,593.9
2022-11-16T10:07:44.268Z,593.9
2022-11-16T10:08:46.199Z,593.7
2022-11-16T10:09:48.108Z,593.5
2022-11-16T10:10:49.785Z,593.7
2022-11-16T10:11:51.613Z,593.4
2022-11-16T10:12:53.362Z,594
2022-11-16T10:14:00.127Z,594.5
2022-11-16T10:15:05.458Z,594.9
2022-11-16T10:16:07.280Z,594.9
2022-11-16T10:17:08.961Z,595.2
2022-11-16T10:18:10.537Z,595.3
2022-11-16T10:19:12.417Z,595.8
2022-11-16T10:20:14.407Z,596
2022-11-16T10:21:16.189Z,595.9
2022-11-16T10:22:18.000Z,595.9
2022-11-16T10:23:19.614Z,596.3
2022-11-16T10:24:21.800Z,596.5
2022-11-16T10:25:23.448Z,596.5
2022-11-16T10:26:25.127Z,597
2022-11-16T10:27:26.839Z,597.2
2022-11-16T10:28:28.517Z,597.6
2022-11-16T10:29:30.336Z,597.4
2022-11-16T10:30:32.042Z,597.4
2022-11-16T10:31:33.792Z,598.1
2022-11-16T10:32:35.470Z,597.8
2022-11-16T10:33:38.266Z,597.8
2022-11-16T10:34:39.973Z,597.6
2022-11-16T10:35:41.787Z,598.3
2022-11-16T10:36:43.395Z,598.4
2022-11-16T10:37:45.147Z,598.8
2022-11-16T10:38:46.738Z,598.4
2022-11-16T10:39:48.849Z,598.5
2022-11-16T10:40:50.522Z,599
2022-11-16T10:41:52.232Z,599.4
2022-11-16T10:42:53.975Z,599.1
2022-11-16T10:43:55.633Z,598.9
2022-11-16T10:44:57.187Z,599.1
2022-11-16T10:45:58.911Z,599.7
2022-11-16T10:47:00.760Z,599.7
2022-11-16T10:48:02.509Z,599.1
2022-11-16T10:49:04.321Z,598.7
2022-11-16T10:50:05.876Z,599.4
2022-11-16T10:51:07.484Z,599.8
2022-11-16T10:52:09.129Z,599.8
2022-11-16T10:53:10.837Z,599.3
2022-11-16T10:54:12.630Z,599.8
2022-11-16T10:55:14.668Z,600.6
2022-11-16T10:56:16.307Z,600.5
2022-11-16T10:57:18.095Z,600
2022-11-16T10:58:19.883Z,599.9
2022-11-16T10:59:22.240Z,600.5
2022-11-16T11:00:24.197Z,600.5
2022-11-16T11:01:26.169Z,600.5
2022-11-16T11:02:27.997Z,600.9
2022-11-16T11:03:29.578Z,601
2022-11-16T11:04:31.141Z,601
2022-11-16T11:05:32.752Z,601.5
2022-11-16T11:06:34.495Z,601.5
2022-11-16T11:07:36.568Z,601.7
2022-11-16T11:08:38.382Z,601.7
2022-11-16T11:09:40.237Z,602
2022-11-16T11:10:42.306Z,601.5
2022-11-16T11:11:44.028Z,602
2022-11-16T11:12:45.777Z,602.5
2022-11-16T11:13:47.433Z,603.1
2022-11-16T11:14:49.077Z,603.2
2022-11-16T11:15:50.704Z,603.1
2022-11-16T11:16:52.260Z,603.1
2022-11-16T11:17:53.952Z,603.5
2022-11-16T11:18:55.552Z,603.7
2022-11-16T11:19:57.323Z,604.1
2022-11-16T11:20:58.947Z,603.9
2022-11-16T11:22:00.622Z,603.8
2022-11-16T11:23:02.171Z,604.1
2022-11-16T11:24:46.022Z,604.9
2022-11-16T11:25:48.271Z,605
2022-11-16T11:26:49.999Z,605.1
2022-11-16T11:27:51.651Z,604.6
2022-11-16T11:28:53.375Z,604.5
2022-11-16T11:29:55.226Z,604.8
2022-11-16T11:30:56.835Z,605.1
2022-11-16T11:31:58.715Z,605.7
2022-11-16T11:33:00.432Z,606.4
2022-11-16T11:34:02.201Z,606.6
2022-11-16T11:35:03.985Z,607
2022-11-16T11:36:05.595Z,607
2022-11-16T11:37:07.345Z,606.7
2022-11-16T11:38:09.138Z,606.7
2022-11-16T11:39:11.041Z,606.7
2022-11-16T11:40:12.792Z,607.1
2022-11-16T11:41:14.866Z,607
2022-11-16T11:42:16.711Z,606.6
2022-11-16T11:43:19.520Z,606.7
2022-11-16T11:44:21.186Z,606.7
2022-11-16T11:45:23.506Z,606.8
2022-11-16T11:48:00.434Z,606.3
2022-11-16T11:49:05.009Z,606.9
2022-11-16T11:50:06.628Z,606.9
2022-11-16T11:51:08.242Z,607.2
2022-11-16T11:52:09.828Z,607.5
2022-11-16T11:53:11.461Z,607.6
2022-11-16T11:54:13.310Z,607.6
2022-11-16T11:55:15.161Z,607.8
2022-11-16T11:56:17.210Z,608.2
2022-11-16T11:57:19.082Z,608.1
2022-11-16T11:58:20.720Z,608.2
2022-11-16T11:59:22.373Z,608.9
2022-11-16T12:00:24.445Z,608.9
2022-11-16T12:01:26.537Z,609.3
2022-11-16T12:02:28.220Z,609
2022-11-16T12:03:29.860Z,609.2
2022-11-16T12:04:31.585Z,609.4
2022-11-16T12:05:33.378Z,609.3
2022-11-16T12:06:43.702Z,609.4
2022-11-16T12:07:45.515Z,609.3
2022-11-16T12:08:47.249Z,609.6
2022-11-16T12:09:49.005Z,609.8
2022-11-16T12:10:50.622Z,610.4
2022-11-16T12:11:52.489Z,610.3
2022-11-16T12:12:54.494Z,609.8
2022-11-16T12:13:56.246Z,610.1
2022-11-16T12:14:57.875Z,610.2
2022-11-16T12:15:59.636Z,610.3
2022-11-16T12:17:01.828Z,610.9
2022-11-16T12:18:03.641Z,611
2022-11-16T12:19:05.499Z,610.8
2022-11-16T12:20:07.106Z,611
2022-11-16T12:21:08.839Z,611.4
2022-11-16T12:22:10.526Z,611.2
2022-11-16T12:23:12.211Z,611
2022-11-16T12:24:13.826Z,610.9
2022-11-16T12:25:16.090Z,611.1
2022-11-16T12:26:17.935Z,611.3
2022-11-16T12:27:19.785Z,611.5
2022-11-16T12:28:21.753Z,611.9
2022-11-16T12:29:23.867Z,612.3
2022-11-16T12:30:25.585Z,612.3
2022-11-16T12:31:27.261Z,612.5
2022-11-16T12:32:29.135Z,611.9
2022-11-16T12:33:31.720Z,612.5
2022-11-16T12:34:33.643Z,612.9
2022-11-16T12:35:35.318Z,612.9
2022-11-16T12:36:37.135Z,612.8
2022-11-16T12:37:38.684Z,612.7
2022-11-16T12:38:40.329Z,613.4
2022-11-16T12:39:41.905Z,613.6
2022-11-16T12:40:43.869Z,613.7
2022-11-16T12:41:45.563Z,613.9
2022-11-16T12:42:47.341Z,613.9
2022-11-16T12:43:49.336Z,613.8
2022-11-16T12:44:50.930Z,614.1
2022-11-16T12:45:52.501Z,614.1
2022-11-16T12:46:54.239Z,614.3
2022-11-16T12:47:55.844Z,614.3
2022-11-16T12:48:57.491Z,614.7
2022-11-16T12:49:59.170Z,614.1
2022-11-16T12:51:00.983Z,614.1
2022-11-16T12:52:02.734Z,614.1
2022-11-16T12:53:04.500Z,614.2
2022-11-16T12:54:06.241Z,614.1
2022-11-16T12:55:38.030Z,614.7
2022-11-16T12:56:49.037Z,614.8
2022-11-16T12:57:51.306Z,615
2022-11-16T12:58:53.172Z,615.2
2022-11-16T12:59:54.801Z,615.3
2022-11-16T13:00:56.777Z,615
2022-11-16T13:02:01.369Z,614.9
2022-11-16T13:03:02.979Z,615.2
2022-11-16T13:04:04.543Z,615
2022-11-16T13:05:06.225Z,614.9
2022-11-16T13:06:08.052Z,614.8
2022-11-16T13:07:12.164Z,614.4
2022-11-16T13:08:13.965Z,615
2022-11-16T13:09:15.649Z,615.1
2022-11-16T13:10:17.275Z,615.4
2022-11-16T13:11:19.171Z,615.4
2022-11-16T13:12:21.223Z,615.2
2022-11-16T13:13:37.797Z,615.5
2022-11-16T13:14:39.666Z,615.7
2022-11-16T13:15:41.495Z,615.9
2022-11-16T13:16:43.061Z,615.7
2022-11-16T13:17:44.798Z,615.5
2022-11-16T13:18:46.359Z,615.3
2022-11-16T13:19:48.016Z,615.4
2022-11-16T13:20:49.658Z,615.6
2022-11-16T13:21:51.269Z,616.4
2022-11-16T13:22:55.441Z,616.3
2022-11-16T13:23:57.039Z,616.7
2022-11-16T13:24:58.769Z,616.3
2022-11-16T13:26:00.529Z,616
2022-11-16T13:27:02.360Z,615.5